Time;durP1;ratioP1;P1;durP2;ratioP2;P2;SDS_P1;SDS_P2;PMS_P1;PMS_P2;Temp;Humidity;BMP_temperature;BMP_pressure;BME280_temperature;BME280_humidity;BME280_pressure;Samples;Min_cycle;Max_cycle;Signal;HPM_P1;HPM_P2
2021/08/20 00:01:02;;;;;;;;;;;;;;;;;;5037483;28;19929;-90
2021/08/20 00:03:30;;;;;;;;;;;;;;;;;;5028092;28;19932;-92
2021/08/20 00:05:59;;;;;;;;;;;;;;;;;;5049875;28;20400;-90
2021/08/20 00:08:28;;;;;;;;;;;;;;;;;;5045984;28;19924;-93
2021/08/20 00:10:59;;;;;;;;;;;;;;;;;;5019879;28;19943;-91
2021/08/20 00:13:27;;;;;;;;;;;;;;;;;;5012885;28;20176;-93
2021/08/20 00:15:55;;;;;;;;;;;;;;;;;;5009673;28;19925;-95
2021/08/20 00:18:24;;;;;;;;;;;;;;;;;;5027329;28;19925;-93
2021/08/20 00:20:53;;;;;;;;;;;;;;;;;;5025307;28;20393;-92
2021/08/20 00:23:21;;;;;;;;;;;;;;;;;;5025307;28;20404;-93
2021/08/20 00:25:49;;;;;;;;;;;;;;;;;;5028671;28;20205;-94
2021/08/20 00:28:19;;;;;;;;;;;;;;;;;;5013780;28;19936;-94
2021/08/20 00:30:47;;;;;;;;;;;;;;;;;;5018484;28;19925;-94
2021/08/20 00:33:16;;;;;;;;;;;;;;;;;;5041170;28;19925;-94
2021/08/20 00:35:45;;;;;;;;;;;;;;;;;;5023644;28;19933;-93
2021/08/20 00:38:14;;;;;;;;;;;;;;;;;;5028161;28;19932;-93
2021/08/20 00:40:43;;;;;;;;;;;;;;;;;;5027742;28;19933;-94
2021/08/20 00:43:11;;;;;;;;;;;;;;;;;;5029158;28;19947;-93
2021/08/20 00:45:40;;;;;;;;;;;;;;;;;;5009153;28;20389;-95
2021/08/20 00:48:09;;;;;;;;;;;;;;;;;;5020574;28;19925;-93
2021/08/20 00:50:37;;;;;;;;;;;;;;;;;;5025276;28;20392;-93
2021/08/20 00:53:05;;;;;;;;;;;;;;;;;;5009806;28;20308;-94
2021/08/20 00:55:33;;;;;;;;;;;;;;;;;;5010324;28;19937;-94
2021/08/20 00:58:02;;;;;;;;;;;;;;;;;;5008293;28;20112;-93
2021/08/20 01:00:31;;;;;;;;;;;;;;;;;;5043235;28;19939;-94
2021/08/20 01:03:00;;;;;;;;;;;;;;;;;;5003562;28;19947;-95
2021/08/20 01:05:29;;;;;;;;;;;;;;;;;;5023504;28;19925;-94
2021/08/20 01:07:57;;;;;;;;;;;;;;;;;;5028230;28;19932;-94
2021/08/20 01:10:27;;;;;;;;;;;;;;;;;;5004959;28;19932;-96
2021/08/20 01:12:55;;;;;;;;;;;;;;;;;;5028687;28;19929;-93
2021/08/20 01:15:23;;;;;;;;;;;;;;;;;;5007604;28;19932;-93
2021/08/20 01:17:53;;;;;;;;;;;;;;;;;;5029435;28;20273;-94
2021/08/20 01:20:23;;;;;;;;;;;;;;;;;;5012312;28;19948;-94
2021/08/20 01:22:52;;;;;;;;;;;;;;;;;;5027354;28;19916;-94
2021/08/20 01:25:22;;;;;;;;;;;;;;;;;;5042963;28;19928;-95
2021/08/20 01:27:51;;;;;;;;;;;;;;;;;;5039512;28;19932;-94
2021/08/20 01:30:20;;;;;;;;;;;;;;;;;;5049434;28;19921;-93
2021/08/20 01:32:48;;;;;;;;;;;;;;;;;;5043167;28;19927;-96
2021/08/20 01:35:17;;;;;;;;;;;;;;;;;;5038330;28;19931;-96
2021/08/20 01:37:45;;;;;;;;;;;;;;;;;;5021597;28;19924;-95
2021/08/20 01:40:14;;;;;;;;;;;;;;;;;;5016909;28;19936;-95
2021/08/20 01:42:45;;;;;;;;;;;;;;;;;;5028255;28;19929;-94
2021/08/20 01:45:15;;;;;;;;;;;;;;;;;;5041732;28;19929;-94
2021/08/20 01:47:44;;;;;;;;;;;;;;;;;;5016352;28;19924;-95
2021/08/20 01:50:13;;;;;;;;;;;;;;;;;;5010295;28;19929;-95
2021/08/20 01:52:43;;;;;;;;;;;;;;;;;;5016120;28;19944;-95
2021/08/20 01:55:12;;;;;;;;;;;;;;;;;;5042735;28;19925;-96
2021/08/20 01:57:41;;;;;;;;;;;;;;;;;;5018776;28;19924;-94
2021/08/20 02:00:13;;;;;;;;;;;;;;;;;;5032198;28;19929;-95
2021/08/20 02:02:41;;;;;;;;;;;;;;;;;;5033977;28;20007;-95
2021/08/20 02:05:15;;;;;;;;;;;;;;;;;;5036046;28;19940;-96
2021/08/20 02:07:44;;;;;;;;;;;;;;;;;;5014680;28;19936;-95
2021/08/20 02:10:16;;;;;;;;;;;;;;;;;;5025765;28;19932;-95
2021/08/20 02:12:44;;;;;;;;;;;;;;;;;;5040825;28;19956;-95
2021/08/20 02:15:14;;;;;;;;;;;;;;;;;;5034347;28;19936;-95
2021/08/20 02:17:42;;;;;;;;;;;;;;;;;;5034235;28;19939;-92
2021/08/20 02:20:13;;;;;;;;;;;;;;;;;;5033600;28;19932;-94
2021/08/20 02:22:42;;;;;;;;;;;;;;;;;;5028100;28;19925;-94
2021/08/20 02:25:12;;;;;;;;;;;;;;;;;;5053808;28;20340;-95
2021/08/20 02:27:42;;;;;;;;;;;;;;;;;;5032400;28;20384;-95
2021/08/20 02:30:11;;;;;;;;;;;;;;;;;;5062698;28;19931;-95
2021/08/20 02:32:50;;;;;;;;;;;;;;;;;;5034440;28;19933;-95
2021/08/20 02:35:22;;;;;;;;;;;;;;;;;;5020217;28;19948;-95
2021/08/20 02:37:51;;;;;;;;;;;;;;;;;;5043647;28;19929;-94
2021/08/20 02:40:20;;;;;;;;;;;;;;;;;;5045078;28;20288;-95
2021/08/20 02:42:50;;;;;;;;;;;;;;;;;;5031554;28;19929;-94
2021/08/20 02:45:19;;;;;;;;;;;;;;;;;;5030942;28;19931;-94
2021/08/20 02:47:55;;;;;;;;;;;;;;;;;;5031618;28;19932;-95
2021/08/20 02:50:23;;;;;;;;;;;;;;;;;;5055350;28;19912;-95
2021/08/20 02:52:52;;;;;;;;;;;;;;;;;;5029978;28;19935;-95
2021/08/20 02:55:26;;;;;;;;;;;;;;;;;;5052496;28;19939;-96
2021/08/20 02:57:55;;;;;;;;;;;;;;;;;;5030327;28;19937;-94
2021/08/20 03:00:28;;;;;;;;;;;;;;;;;;5036868;28;20410;-95
2021/08/20 03:03:03;;;;;;;;;;;;;;;;;;5031612;28;19935;-96
2021/08/20 03:05:32;;;;;;;;;;;;;;;;;;5053155;28;19939;-95
2021/08/20 03:08:21;;;;;;;;;;;;;;;;;;5053848;28;19929;-93
2021/08/20 03:10:49;;;;;;;;;;;;;;;;;;5053333;28;19913;-95
2021/08/20 03:13:18;;;;;;;;;;;;;;;;;;5053277;28;19921;-96
2021/08/20 03:15:51;;;;;;;;;;;;;;;;;;5044657;28;19925;-95
2021/08/20 03:18:22;;;;;;;;;;;;;;;;;;5050698;28;19929;-95
2021/08/20 03:20:51;;;;;;;;;;;;;;;;;;5049290;28;19925;-95
2021/08/20 03:40:57;;;;;;;;;;;;;;;;;;6045138;23;2012270;-94
2021/08/20 04:13:34;;;;;;;;;;;;;;;;;;5160697;27;19949;-93
2021/08/20 04:48:00;;;;;;;;;;;;;;;;;;6138542;22;2016938;-93
2021/08/20 05:10:17;;;;;;;;;;;;;;;;;;5477549;22;15754328;-93
2021/08/20 05:31:25;;;;;;;;;;;;;;;;;;5155667;27;20218;-85
2021/08/20 05:46:23;;;;;;;;;;;;;;;;;;;;;
2021/08/20 06:01:29;;;;;;;;;;;;;;;;;;5128557;22;19925;-93
2021/08/20 06:12:42;;;;;;;;;;;;;;;;;;5068850;27;20380;-91
2021/08/20 06:15:35;;;;;;;;;;;;;;;;;;4237800;27;25463172;-87
2021/08/20 06:18:19;;;;;;;;;;;;;;;;;;5060504;27;20019;-85
2021/08/20 06:21:02;;;;;;;;;;;;;;;;;;5095117;27;20457;-85
2021/08/20 06:23:51;;;;;;;;;;;;;;;;;;5067310;28;19916;-85
2021/08/20 06:26:32;;;;;;;;;;;;;;;;;;5116418;27;19985;-84
2021/08/20 06:29:15;;;;;;;;;;;;;;;;;;5139960;27;19924;-86
2021/08/20 06:31:47;;;;;;;;;;;;;;;;;;5122655;27;19938;-84
2021/08/20 06:34:30;;;;;;;;;;;;;;;;;;5056981;27;19982;-84
2021/08/20 06:37:11;;;;;;;;;;;;;;;;;;5127335;27;19955;-84
2021/08/20 06:39:53;;;;;;;;;;;;;;;;;;5111838;27;19945;-84
2021/08/20 06:42:34;;;;;;;;;;;;;;;;;;5101183;27;19952;-84
2021/08/20 06:45:18;;;;;;;;;;;;;;;;;;5061799;27;20006;-84
2021/08/20 06:47:47;;;;;;;;;;;;;;;;;;5042927;28;19925;-84
2021/08/20 06:50:29;;;;;;;;;;;;;;;;;;5118564;27;20562;-83
2021/08/20 06:53:10;;;;;;;;;;;;;;;;;;5084247;27;20382;-86
2021/08/20 06:55:52;;;;;;;;;;;;;;;;;;5127660;27;19958;-84
2021/08/20 06:59:14;;;;;;;;;;;;;;;;;;5075016;27;20455;-84
2021/08/20 07:02:06;;;;;;;;;;;;;;;;;;5118288;27;19951;-83
2021/08/20 07:04:49;;;;;;;;;;;;;;;;;;5068642;27;20062;-84
2021/08/20 07:07:33;;;;;;;;;;;;;;;;;;5154216;27;19958;-83
2021/08/20 07:10:16;;;;;;;;;;;;;;;;;;5081771;27;20432;-82
2021/08/20 07:12:58;;;;;;;;;;;;;;;;;;5131828;27;19989;-82
2021/08/20 07:15:41;;;;;;;;;;;;;;;;;;5123913;27;20208;-81
2021/08/20 07:18:23;;;;;;;;;;;;;;;;;;5021372;28;20002;-82
2021/08/20 07:21:04;;;;;;;;;;;;;;;;;;5143697;27;19962;-82
2021/08/20 07:23:47;;;;;;;;;;;;;;;;;;5102560;27;20401;-83
2021/08/20 07:26:28;;;;;;;;;;;;;;;;;;5107165;27;19940;-83
2021/08/20 07:39:45;;;;;;;;;;;;;;;;;;5099170;27;20378;-82
2021/08/20 07:42:26;;;;;;;;;;;;;;;;;;5082529;27;19916;-82
2021/08/20 07:45:08;;;;;;;;;;;;;;;;;;5085109;27;19920;-81
2021/08/20 07:47:50;;;;;;;;;;;;;;;;;;5141125;27;19951;-83
2021/08/20 07:50:32;;;;;;;;;;;;;;;;;;5083675;27;21633;-81
2021/08/20 07:53:15;;;;;;;;;;;;;;;;;;5121871;27;19955;-84
2021/08/20 07:55:58;;;;;;;;;;;;;;;;;;5052723;27;19924;-83
2021/08/20 07:58:44;;;;;;;;;;;;;;;;;;5067954;27;20011;-81
2021/08/20 08:01:26;;;;;;;;;;;;;;;;;;5028936;27;20442;-83
2021/08/20 08:04:16;;;;;;;;;;;;;;;;;;5074437;27;19917;-80
2021/08/20 08:07:10;;;;;;;;;;;;;;;;;;5072268;27;19933;-81
2021/08/20 08:10:05;;;;;;;;;;;;;;;;;;5068516;27;19928;-83
2021/08/20 08:13:03;;;;;;;;;;;;;;;;;;5059712;27;19952;-82
2021/08/20 08:15:58;;;;;;;;;;;;;;;;;;5062682;27;20352;-82
2021/08/20 08:18:54;;;;;;;;;;;;;;;;;;5089544;27;19916;-82
2021/08/20 08:21:50;;;;;;;;;;;;;;;;;;5056645;27;19931;-83
2021/08/20 08:24:54;;;;;;;;;;;;;;;;;;5117798;27;19916;-81
2021/08/20 08:27:55;;;;;;;;;;;;;;;;;;5067681;27;19917;-83
2021/08/20 08:30:51;;;;;;;;;;;;;;;;;;5059586;27;19932;-81
2021/08/20 08:33:47;;;;;;;;;;;;;;;;;;5060887;27;19928;-84
2021/08/20 08:36:41;;;;;;;;;;;;;;;;;;5072040;27;19928;-83
2021/08/20 08:39:41;;;;;;;;;;;;;;;;;;5127552;27;19920;-81
2021/08/20 08:42:36;;;;;;;;;;;;;;;;;;5121932;27;19922;-82
2021/08/20 08:45:30;;;;;;;;;;;;;;;;;;5068754;27;20286;-82
2021/08/20 08:48:13;;;;;;;;;;;;;;;;;;5097614;27;20005;-81
2021/08/20 08:50:54;;;;;;;;;;;;;;;;;;5073097;27;19917;-84
2021/08/20 08:53:35;;;;;;;;;;;;;;;;;;5132991;27;19943;-81
2021/08/20 08:56:19;;;;;;;;;;;;;;;;;;5069157;27;19932;-82
2021/08/20 08:59:00;;;;;;;;;;;;;;;;;;5127114;27;19943;-82
2021/08/20 09:01:42;;;;;;;;;;;;;;;;;;5105133;27;20394;-82
2021/08/20 09:04:24;;;;;;;;;;;;;;;;;;5114312;27;20406;-84
2021/08/20 09:07:30;;;;;;;;;;;;;;;;;;5075236;27;20029;-84
2021/08/20 09:10:12;;;;;;;;;;;;;;;;;;5124632;27;19950;-83
2021/08/20 09:12:56;;;;;;;;;;;;;;;;;;5086302;27;19956;-82
2021/08/20 09:15:37;;;;;;;;;;;;;;;;;;5136751;27;19958;-83
2021/08/20 09:18:22;;;;;;;;;;;;;;;;;;5071848;27;20383;-81
2021/08/20 09:21:03;;;;;;;;;;;;;;;;;;5087881;27;19944;-82
2021/08/20 09:23:44;;;;;;;;;;;;;;;;;;5113160;27;19947;-82
2021/08/20 09:26:25;;;;;;;;;;;;;;;;;;5038148;27;20028;-81
2021/08/20 09:29:13;;;;;;;;;;;;;;;;;;5102962;27;19959;-82
2021/08/20 09:31:55;;;;;;;;;;;;;;;;;;5102668;27;19932;-81
2021/08/20 09:34:49;;;;;;;;;;;;;;;;;;5117169;27;19947;-82
2021/08/20 09:37:31;;;;;;;;;;;;;;;;;;5076947;27;20025;-83
2021/08/20 09:40:14;;;;;;;;;;;;;;;;;;5087448;27;19959;-81
2021/08/20 09:42:55;;;;;;;;;;;;;;;;;;5015616;28;20763;-81
2021/08/20 09:45:38;;;;;;;;;;;;;;;;;;5085735;27;19948;-82
2021/08/20 09:48:19;;;;;;;;;;;;;;;;;;5120375;27;19947;-83
2021/08/20 09:51:01;;;;;;;;;;;;;;;;;;5049789;27;19929;-82
2021/08/20 09:53:42;;;;;;;;;;;;;;;;;;5077432;27;19940;-83
2021/08/20 09:56:23;;;;;;;;;;;;;;;;;;5131880;27;20681;-81
2021/08/20 09:59:06;;;;;;;;;;;;;;;;;;5105909;27;20015;-84
2021/08/20 10:01:47;;;;;;;;;;;;;;;;;;5099985;27;19951;-82
2021/08/20 10:04:28;;;;;;;;;;;;;;;;;;5085051;27;19981;-83
2021/08/20 10:07:09;;;;;;;;;;;;;;;;;;5087489;27;20404;-81
2021/08/20 10:09:51;;;;;;;;;;;;;;;;;;5080339;27;20017;-83
2021/08/20 10:12:32;;;;;;;;;;;;;;;;;;5044048;28;19950;-81
2021/08/20 10:15:13;;;;;;;;;;;;;;;;;;5054332;28;19948;-82
2021/08/20 10:17:42;;;;;;;;;;;;;;;;;;5034967;28;19933;-82
2021/08/20 10:20:10;;;;;;;;;;;;;;;;;;5042276;28;19932;-81
2021/08/20 10:22:38;;;;;;;;;;;;;;;;;;5024478;28;19929;-81
2021/08/20 10:25:08;;;;;;;;;;;;;;;;;;5042996;28;19925;-81
2021/08/20 10:27:36;;;;;;;;;;;;;;;;;;5041828;28;19925;-81
2021/08/20 10:30:06;;;;;;;;;;;;;;;;;;5041392;28;19932;-81
2021/08/20 10:32:36;;;;;;;;;;;;;;;;;;5024150;28;19925;-81
2021/08/20 10:35:05;;;;;;;;;;;;;;;;;;5041734;28;19929;-81
2021/08/20 10:37:34;;;;;;;;;;;;;;;;;;5039345;28;19929;-81
2021/08/20 10:40:14;;;;;;;;;;;;;;;;;;5022075;28;19926;-81
2021/08/20 10:42:43;;;;;;;;;;;;;;;;;;5029746;28;19929;-81
2021/08/20 10:45:25;;;;;;;;;;;;;;;;;;5020267;27;19929;-81
2021/08/20 10:48:18;;;;;;;;;;;;;;;;;;5114382;27;19963;-81
2021/08/20 10:51:00;;;;;;;;;;;;;;;;;;5083691;27;20459;-81
2021/08/20 10:53:48;;;;;;;;;;;;;;;;;;5095189;27;19956;-81
2021/08/20 10:56:32;;;;;;;;;;;;;;;;;;5089793;27;19970;-81
2021/08/20 10:59:30;;;;;;;;;;;;;;;;;;5111604;27;20397;-82
2021/08/20 11:02:29;;;;;;;;;;;;;;;;;;5132514;27;20401;-84
2021/08/20 11:05:11;;;;;;;;;;;;;;;;;;5136219;27;19943;-81
2021/08/20 11:07:52;;;;;;;;;;;;;;;;;;5137023;27;20429;-81
2021/08/20 11:10:33;;;;;;;;;;;;;;;;;;5089241;27;20033;-83
2021/08/20 11:13:14;;;;;;;;;;;;;;;;;;5084217;27;19952;-80
2021/08/20 11:15:56;;;;;;;;;;;;;;;;;;5093007;27;20020;-81
2021/08/20 11:18:41;;;;;;;;;;;;;;;;;;5077260;27;20378;-82
2021/08/20 11:21:44;;;;;;;;;;;;;;;;;;5069630;27;19948;-81
2021/08/20 11:24:26;;;;;;;;;;;;;;;;;;5103668;27;19969;-81
2021/08/20 11:27:15;;;;;;;;;;;;;;;;;;5096480;27;20393;-81
2021/08/20 11:29:59;;;;;;;;;;;;;;;;;;5128402;27;19963;-82
2021/08/20 11:32:34;;;;;;;;;;;;;;;;;;5107871;27;19923;-82
2021/08/20 11:35:03;;;;;;;;;;;;;;;;;;5122627;27;19931;-82
2021/08/20 11:37:31;;;;;;;;;;;;;;;;;;5102496;27;19930;-82
2021/08/20 11:40:00;;;;;;;;;;;;;;;;;;5106239;27;20536;-83
2021/08/20 11:42:28;;;;;;;;;;;;;;;;;;5104734;27;20040;-83
2021/08/20 11:44:56;;;;;;;;;;;;;;;;;;5098070;27;19932;-82
2021/08/20 11:47:26;;;;;;;;;;;;;;;;;;5124377;27;20305;-82
2021/08/20 11:49:58;;;;;;;;;;;;;;;;;;5108797;27;19935;-83
2021/08/20 11:52:26;;;;;;;;;;;;;;;;;;5128070;27;19931;-82
2021/08/20 11:54:54;;;;;;;;;;;;;;;;;;5099869;27;20013;-82
2021/08/20 11:57:23;;;;;;;;;;;;;;;;;;5093485;28;19924;-82
2021/08/20 11:59:54;;;;;;;;;;;;;;;;;;5127760;27;19931;-82
2021/08/20 12:02:23;;;;;;;;;;;;;;;;;;5124922;27;19923;-82
2021/08/20 12:04:53;;;;;;;;;;;;;;;;;;5116320;27;19924;-82
2021/08/20 12:07:48;;;;;;;;;;;;;;;;;;5128135;27;19939;-82
2021/08/20 12:10:20;;;;;;;;;;;;;;;;;;5105008;27;20354;-82
2021/08/20 12:12:49;;;;;;;;;;;;;;;;;;5128432;27;19928;-81
2021/08/20 12:15:17;;;;;;;;;;;;;;;;;;5108706;27;19934;-82
2021/08/20 12:17:45;;;;;;;;;;;;;;;;;;5108123;27;20377;-82
2021/08/20 12:20:19;;;;;;;;;;;;;;;;;;5128192;27;20631;-82
2021/08/20 12:22:51;;;;;;;;;;;;;;;;;;5107187;28;19924;-82
2021/08/20 12:25:20;;;;;;;;;;;;;;;;;;5126255;27;19928;-82
2021/08/20 12:27:49;;;;;;;;;;;;;;;;;;5123012;27;19931;-82
2021/08/20 12:30:18;;;;;;;;;;;;;;;;;;5125954;27;19923;-81
2021/08/20 12:32:54;;;;;;;;;;;;;;;;;;5109632;28;19923;-82
2021/08/20 12:35:24;;;;;;;;;;;;;;;;;;5121838;27;19935;-81
2021/08/20 12:38:07;;;;;;;;;;;;;;;;;;5095781;27;19924;-81
2021/08/20 12:40:39;;;;;;;;;;;;;;;;;;5123450;27;20330;-81
2021/08/20 12:43:24;;;;;;;;;;;;;;;;;;5129417;28;19908;-81
2021/08/20 12:46:23;;;;;;;;;;;;;;;;;;5129455;28;19924;-81
2021/08/20 12:49:00;;;;;;;;;;;;;;;;;;5028144;28;19936;-82
2021/08/20 12:51:30;;;;;;;;;;;;;;;;;;5095637;28;19931;-81
2021/08/20 12:54:02;;;;;;;;;;;;;;;;;;5096607;28;19923;-83
2021/08/20 12:56:31;;;;;;;;;;;;;;;;;;5110052;27;19931;-83
2021/08/20 12:58:59;;;;;;;;;;;;;;;;;;5088517;28;20465;-82
2021/08/20 13:01:28;;;;;;;;;;;;;;;;;;5089874;28;19932;-82
2021/08/20 13:03:56;;;;;;;;;;;;;;;;;;5099713;28;19930;-82
2021/08/20 13:06:24;;;;;;;;;;;;;;;;;;5101236;28;20345;-81
2021/08/20 13:08:54;;;;;;;;;;;;;;;;;;5098289;28;19923;-82
2021/08/20 13:11:42;;;;;;;;;;;;;;;;;;5114747;27;19928;-82
2021/08/20 13:14:10;;;;;;;;;;;;;;;;;;5111737;28;19928;-82
2021/08/20 13:16:39;;;;;;;;;;;;;;;;;;5093900;28;20401;-83
2021/08/20 13:19:07;;;;;;;;;;;;;;;;;;5113459;27;19924;-82
2021/08/20 13:21:35;;;;;;;;;;;;;;;;;;5103811;28;19927;-82
2021/08/20 13:24:05;;;;;;;;;;;;;;;;;;5097319;28;19924;-83
2021/08/20 13:26:33;;;;;;;;;;;;;;;;;;5096710;27;19930;-81
2021/08/20 13:29:02;;;;;;;;;;;;;;;;;;5099658;28;19931;-83
2021/08/20 13:31:30;;;;;;;;;;;;;;;;;;5113171;28;19923;-82
2021/08/20 13:33:58;;;;;;;;;;;;;;;;;;5095060;28;19924;-82
2021/08/20 13:36:29;;;;;;;;;;;;;;;;;;5115422;27;19930;-83
2021/08/20 13:38:57;;;;;;;;;;;;;;;;;;5112765;28;19931;-83
2021/08/20 13:41:32;;;;;;;;;;;;;;;;;;5092728;28;19931;-82
2021/08/20 13:44:01;;;;;;;;;;;;;;;;;;5094908;28;19924;-81
2021/08/20 13:46:30;;;;;;;;;;;;;;;;;;5097261;27;20458;-81
2021/08/20 13:48:58;;;;;;;;;;;;;;;;;;5113416;27;19939;-82
2021/08/20 13:51:26;;;;;;;;;;;;;;;;;;5083848;28;19947;-83
2021/08/20 13:53:54;;;;;;;;;;;;;;;;;;5088617;28;19923;-82
2021/08/20 13:56:23;;;;;;;;;;;;;;;;;;5110558;27;19931;-82
2021/08/20 13:58:53;;;;;;;;;;;;;;;;;;5091594;28;19938;-84
2021/08/20 14:01:21;;;;;;;;;;;;;;;;;;5115604;27;20153;-82
2021/08/20 14:03:49;;;;;;;;;;;;;;;;;;5112317;28;19927;-82
2021/08/20 14:06:18;;;;;;;;;;;;;;;;;;5111279;28;19939;-82
2021/08/20 14:08:47;;;;;;;;;;;;;;;;;;5106412;27;19931;-82
2021/08/20 14:11:15;;;;;;;;;;;;;;;;;;5111502;28;19943;-83
2021/08/20 14:13:44;;;;;;;;;;;;;;;;;;5094708;28;19928;-82
2021/08/20 14:16:13;;;;;;;;;;;;;;;;;;5094841;28;19950;-82
2021/08/20 14:18:41;;;;;;;;;;;;;;;;;;5102866;28;19935;-83
2021/08/20 14:21:10;;;;;;;;;;;;;;;;;;5110152;27;20436;-82
2021/08/20 14:23:38;;;;;;;;;;;;;;;;;;5091406;28;19928;-82
2021/08/20 14:26:06;;;;;;;;;;;;;;;;;;5119602;27;19924;-83
2021/08/20 14:28:34;;;;;;;;;;;;;;;;;;5090757;28;19931;-82
2021/08/20 14:31:02;;;;;;;;;;;;;;;;;;5092124;28;20305;-82
2021/08/20 14:33:32;;;;;;;;;;;;;;;;;;5087621;28;19931;-82
2021/08/20 14:36:00;;;;;;;;;;;;;;;;;;5103314;27;19928;-82
2021/08/20 14:38:29;;;;;;;;;;;;;;;;;;5092822;28;20041;-82
2021/08/20 14:40:57;;;;;;;;;;;;;;;;;;5088577;28;19930;-83
2021/08/20 14:43:25;;;;;;;;;;;;;;;;;;5095603;28;19935;-84
2021/08/20 14:45:54;;;;;;;;;;;;;;;;;;5091611;28;19932;-82
2021/08/20 14:48:24;;;;;;;;;;;;;;;;;;5102439;27;19924;-83
2021/08/20 14:50:54;;;;;;;;;;;;;;;;;;5106821;28;19935;-82
2021/08/20 14:53:22;;;;;;;;;;;;;;;;;;5089657;28;19924;-82
2021/08/20 14:55:50;;;;;;;;;;;;;;;;;;5084793;28;19924;-82
2021/08/20 14:58:19;;;;;;;;;;;;;;;;;;5098946;27;20313;-82
2021/08/20 15:00:47;;;;;;;;;;;;;;;;;;5073416;27;19938;-82
2021/08/20 15:03:15;;;;;;;;;;;;;;;;;;5109173;27;19943;-82
2021/08/20 15:05:44;;;;;;;;;;;;;;;;;;5095603;28;19927;-82
2021/08/20 15:08:14;;;;;;;;;;;;;;;;;;5088744;28;19950;-82
2021/08/20 15:10:44;;;;;;;;;;;;;;;;;;5110583;28;19932;-82
2021/08/20 15:13:14;;;;;;;;;;;;;;;;;;5088875;28;19939;-82
2021/08/20 15:15:42;;;;;;;;;;;;;;;;;;5110487;28;19927;-83
2021/08/20 15:18:11;;;;;;;;;;;;;;;;;;5106657;28;19934;-82
2021/08/20 15:20:40;;;;;;;;;;;;;;;;;;5107238;28;19939;-81
2021/08/20 15:23:08;;;;;;;;;;;;;;;;;;5089098;28;19924;-82
2021/08/20 15:25:38;;;;;;;;;;;;;;;;;;5103394;28;19928;-84
2021/08/20 15:28:06;;;;;;;;;;;;;;;;;;5088916;28;19928;-82
2021/08/20 15:30:35;;;;;;;;;;;;;;;;;;5081200;28;20002;-82
2021/08/20 15:33:03;;;;;;;;;;;;;;;;;;5101610;28;19932;-82
2021/08/20 15:35:31;;;;;;;;;;;;;;;;;;5102350;28;20015;-81
2021/08/20 15:38:00;;;;;;;;;;;;;;;;;;5093683;28;20397;-81
2021/08/20 15:40:29;;;;;;;;;;;;;;;;;;5101229;28;19924;-81
2021/08/20 15:42:59;;;;;;;;;;;;;;;;;;5110295;28;19924;-81
2021/08/20 15:45:27;;;;;;;;;;;;;;;;;;5087779;28;19932;-81
2021/08/20 15:47:55;;;;;;;;;;;;;;;;;;5113178;28;19930;-81
2021/08/20 15:50:25;;;;;;;;;;;;;;;;;;5108771;28;19927;-81
2021/08/20 15:52:53;;;;;;;;;;;;;;;;;;5109446;28;19927;-81
2021/08/20 15:55:21;;;;;;;;;;;;;;;;;;5106623;28;19938;-82
2021/08/20 15:57:50;;;;;;;;;;;;;;;;;;5087817;28;20401;-81
2021/08/20 16:00:20;;;;;;;;;;;;;;;;;;5115681;28;19930;-81
2021/08/20 16:02:48;;;;;;;;;;;;;;;;;;5119656;28;20059;-81
2021/08/20 16:05:16;;;;;;;;;;;;;;;;;;5114413;28;19924;-80
2021/08/20 16:07:45;;;;;;;;;;;;;;;;;;5076869;28;19928;-81
2021/08/20 16:10:14;;;;;;;;;;;;;;;;;;5101312;28;19928;-82
2021/08/20 16:12:42;;;;;;;;;;;;;;;;;;5096306;28;19932;-81
2021/08/20 16:15:11;;;;;;;;;;;;;;;;;;5074738;28;19924;-80
2021/08/20 16:17:41;;;;;;;;;;;;;;;;;;5102128;28;19928;-80
2021/08/20 16:20:09;;;;;;;;;;;;;;;;;;5103859;27;19935;-81
2021/08/20 16:22:38;;;;;;;;;;;;;;;;;;5113080;28;19931;-81
2021/08/20 16:25:07;;;;;;;;;;;;;;;;;;5116866;27;19923;-80
2021/08/20 16:27:35;;;;;;;;;;;;;;;;;;5110016;27;20324;-80
2021/08/20 16:30:03;;;;;;;;;;;;;;;;;;5089592;28;20468;-80
2021/08/20 16:32:31;;;;;;;;;;;;;;;;;;5094262;28;19938;-80
2021/08/20 16:35:01;;;;;;;;;;;;;;;;;;5113779;28;19923;-81
2021/08/20 16:37:30;;;;;;;;;;;;;;;;;;5090191;28;20382;-81
2021/08/20 16:39:58;;;;;;;;;;;;;;;;;;5109271;28;19924;-81
2021/08/20 16:42:26;;;;;;;;;;;;;;;;;;5108742;28;19924;-80
2021/08/20 16:44:54;;;;;;;;;;;;;;;;;;5116916;27;19928;-81
2021/08/20 16:47:22;;;;;;;;;;;;;;;;;;5099930;28;19935;-81
2021/08/20 16:49:51;;;;;;;;;;;;;;;;;;5102986;28;19932;-82
2021/08/20 16:52:21;;;;;;;;;;;;;;;;;;5095113;28;19923;-81
2021/08/20 16:54:51;;;;;;;;;;;;;;;;;;5113198;27;19924;-81
2021/08/20 16:57:19;;;;;;;;;;;;;;;;;;5093056;28;23028;-80
2021/08/20 16:59:47;;;;;;;;;;;;;;;;;;5082946;28;19932;-80
2021/08/20 17:02:16;;;;;;;;;;;;;;;;;;5108202;27;19924;-80
2021/08/20 17:04:44;;;;;;;;;;;;;;;;;;5111024;27;19935;-80
2021/08/20 17:07:12;;;;;;;;;;;;;;;;;;5085798;28;19928;-79
2021/08/20 17:09:41;;;;;;;;;;;;;;;;;;5089810;28;19934;-80
2021/08/20 17:12:10;;;;;;;;;;;;;;;;;;5089363;28;20381;-81
2021/08/20 17:14:38;;;;;;;;;;;;;;;;;;5083627;28;19924;-80
2021/08/20 17:17:08;;;;;;;;;;;;;;;;;;5083722;28;19939;-81
2021/08/20 17:19:36;;;;;;;;;;;;;;;;;;5106021;28;19928;-81
2021/08/20 17:22:05;;;;;;;;;;;;;;;;;;5084165;28;19927;-81
2021/08/20 17:24:34;;;;;;;;;;;;;;;;;;5099192;27;19938;-81
2021/08/20 17:27:04;;;;;;;;;;;;;;;;;;5084537;27;19938;-81
2021/08/20 17:29:32;;;;;;;;;;;;;;;;;;5080393;27;19927;-82
2021/08/20 17:32:00;;;;;;;;;;;;;;;;;;5090035;28;19931;-81
2021/08/20 17:34:28;;;;;;;;;;;;;;;;;;5075645;28;19938;-82
2021/08/20 17:36:56;;;;;;;;;;;;;;;;;;5073955;27;19932;-82
2021/08/20 17:39:25;;;;;;;;;;;;;;;;;;5077031;27;19928;-82
2021/08/20 17:41:53;;;;;;;;;;;;;;;;;;5083901;27;20465;-82
2021/08/20 17:44:23;;;;;;;;;;;;;;;;;;5076741;28;19923;-82
2021/08/20 17:46:51;;;;;;;;;;;;;;;;;;5080463;28;19934;-82
2021/08/20 17:49:19;;;;;;;;;;;;;;;;;;5094913;27;19925;-82
2021/08/20 17:51:47;;;;;;;;;;;;;;;;;;5107756;27;19927;-82
2021/08/20 17:54:16;;;;;;;;;;;;;;;;;;5078341;28;19923;-81
2021/08/20 17:56:46;;;;;;;;;;;;;;;;;;5088769;28;19939;-81
2021/08/20 17:59:38;;;;;;;;;;;;;;;;;;5078536;28;19931;-82
2021/08/20 18:02:20;;;;;;;;;;;;;;;;;;5082855;28;20608;-83
2021/08/20 18:05:02;;;;;;;;;;;;;;;;;;5089499;28;20194;-84
2021/08/20 18:07:31;;;;;;;;;;;;;;;;;;5084807;28;19946;-81
2021/08/20 18:09:59;;;;;;;;;;;;;;;;;;5084815;28;19932;-83
2021/08/20 18:12:27;;;;;;;;;;;;;;;;;;5082305;28;19939;-82
2021/08/20 18:14:56;;;;;;;;;;;;;;;;;;5081479;28;20129;-82
2021/08/20 18:17:25;;;;;;;;;;;;;;;;;;5094970;28;19932;-81
2021/08/20 18:19:53;;;;;;;;;;;;;;;;;;5086431;28;19931;-81
2021/08/20 18:22:22;;;;;;;;;;;;;;;;;;5092820;28;19931;-82
2021/08/20 18:24:50;;;;;;;;;;;;;;;;;;5080501;28;19938;-81
2021/08/20 18:27:18;;;;;;;;;;;;;;;;;;5084181;28;19928;-81
2021/08/20 18:30:04;;;;;;;;;;;;;;;;;;5091499;28;19923;-81
2021/08/20 18:33:10;;;;;;;;;;;;;;;;;;5102331;28;19979;-84
2021/08/20 18:35:47;;;;;;;;;;;;;;;;;;5090546;28;19947;-84
2021/08/20 18:38:15;;;;;;;;;;;;;;;;;;5107898;28;19930;-83
2021/08/20 18:40:44;;;;;;;;;;;;;;;;;;5078118;28;20301;-83
2021/08/20 18:43:12;;;;;;;;;;;;;;;;;;5099794;28;19935;-84
2021/08/20 18:45:40;;;;;;;;;;;;;;;;;;5074852;28;19924;-83
2021/08/20 18:48:09;;;;;;;;;;;;;;;;;;5102205;28;19923;-83
2021/08/20 18:50:43;;;;;;;;;;;;;;;;;;5085066;28;20304;-84
2021/08/20 18:53:12;;;;;;;;;;;;;;;;;;5099064;28;19935;-82
2021/08/20 18:55:40;;;;;;;;;;;;;;;;;;5105492;28;19924;-84
2021/08/20 18:58:08;;;;;;;;;;;;;;;;;;5085825;28;19931;-83
2021/08/20 19:00:37;;;;;;;;;;;;;;;;;;5092192;28;19935;-82
2021/08/20 19:03:05;;;;;;;;;;;;;;;;;;5087693;28;20330;-83
2021/08/20 19:05:34;;;;;;;;;;;;;;;;;;5097244;28;20309;-83
2021/08/20 19:08:04;;;;;;;;;;;;;;;;;;5091600;28;20251;-87
2021/08/20 19:10:33;;;;;;;;;;;;;;;;;;5088445;27;19931;-87
2021/08/20 19:13:01;;;;;;;;;;;;;;;;;;5097539;28;19946;-87
2021/08/20 19:15:30;;;;;;;;;;;;;;;;;;5098523;28;19923;-87
2021/08/20 19:17:59;;;;;;;;;;;;;;;;;;5120311;28;19932;-88
2021/08/20 19:20:27;;;;;;;;;;;;;;;;;;5081634;28;19928;-88
2021/08/20 19:22:56;;;;;;;;;;;;;;;;;;5109226;28;19923;-88
2021/08/20 19:25:25;;;;;;;;;;;;;;;;;;5083059;28;19925;-90
2021/08/20 19:27:54;;;;;;;;;;;;;;;;;;5075508;28;19923;-88
2021/08/20 19:30:23;;;;;;;;;;;;;;;;;;5086393;28;19938;-88
2021/08/20 19:32:51;;;;;;;;;;;;;;;;;;5088753;28;19924;-88
2021/08/20 19:35:20;;;;;;;;;;;;;;;;;;5077514;28;19990;-90
2021/08/20 19:37:49;;;;;;;;;;;;;;;;;;5077564;28;19924;-87
2021/08/20 19:40:18;;;;;;;;;;;;;;;;;;5092630;28;19924;-87
2021/08/20 19:42:48;;;;;;;;;;;;;;;;;;5091627;28;19923;-85
2021/08/20 19:45:17;;;;;;;;;;;;;;;;;;5090537;28;19931;-87
2021/08/20 19:47:46;;;;;;;;;;;;;;;;;;5077288;28;19931;-86
2021/08/20 19:50:14;;;;;;;;;;;;;;;;;;5092081;28;19924;-86
2021/08/20 19:52:44;;;;;;;;;;;;;;;;;;5088162;28;19930;-89
2021/08/20 19:55:13;;;;;;;;;;;;;;;;;;5091764;28;19931;-86
2021/08/20 19:57:42;;;;;;;;;;;;;;;;;;5083996;28;19931;-88
2021/08/20 20:00:12;;;;;;;;;;;;;;;;;;5082708;28;19939;-88
2021/08/20 20:02:41;;;;;;;;;;;;;;;;;;5092870;28;19931;-88
2021/08/20 20:05:09;;;;;;;;;;;;;;;;;;5095295;28;19931;-88
2021/08/20 20:07:38;;;;;;;;;;;;;;;;;;5079260;28;19924;-88
2021/08/20 20:10:07;;;;;;;;;;;;;;;;;;5103976;27;20422;-89
2021/08/20 20:12:36;;;;;;;;;;;;;;;;;;5081618;28;19928;-86